sensor_id;sensor_type;location;lat;lon;timestamp;P1;durP1;ratioP1;P2;durP2;ratioP2
15913;SDS011;8055;51.930;8.840;2023-04-03T00:00:55;9.48;;;2.25;;
15913;SDS011;8055;51.930;8.840;2023-04-03T00:03:21;5.80;;;1.90;;
15913;SDS011;8055;51.930;8.840;2023-04-03T00:05:47;7.20;;;1.80;;
15913;SDS011;8055;51.930;8.840;2023-04-03T00:08:12;3.83;;;1.80;;
15913;SDS011;8055;51.930;8.840;2023-04-03T00:10:38;7.90;;;1.88;;
15913;SDS011;8055;51.930;8.840;2023-04-03T00:13:04;5.53;;;1.85;;
15913;SDS011;8055;51.930;8.840;2023-04-03T00:15:30;4.78;;;1.73;;
15913;SDS011;8055;51.930;8.840;2023-04-03T00:17:56;6.22;;;1.60;;
15913;SDS011;8055;51.930;8.840;2023-04-03T00:20:22;6.68;;;2.22;;
15913;SDS011;8055;51.930;8.840;2023-04-03T00:22:47;7.13;;;1.90;;
15913;SDS011;8055;51.930;8.840;2023-04-03T00:25:13;9.57;;;2.45;;
15913;SDS011;8055;51.930;8.840;2023-04-03T00:27:38;6.20;;;1.73;;
15913;SDS011;8055;51.930;8.840;2023-04-03T00:30:05;6.43;;;2.38;;
15913;SDS011;8055;51.930;8.840;2023-04-03T00:32:32;4.40;;;1.92;;
15913;SDS011;8055;51.930;8.840;2023-04-03T00:34:58;4.00;;;1.70;;
15913;SDS011;8055;51.930;8.840;2023-04-03T00:37:24;7.18;;;2.35;;
15913;SDS011;8055;51.930;8.840;2023-04-03T00:39:49;5.18;;;1.80;;
15913;SDS011;8055;51.930;8.840;2023-04-03T00:42:15;3.92;;;2.00;;
15913;SDS011;8055;51.930;8.840;2023-04-03T00:47:07;3.38;;;1.67;;
15913;SDS011;8055;51.930;8.840;2023-04-03T00:49:34;4.28;;;1.55;;
15913;SDS011;8055;51.930;8.840;2023-04-03T00:52:02;6.68;;;1.83;;
15913;SDS011;8055;51.930;8.840;2023-04-03T00:54:28;7.45;;;1.55;;
15913;SDS011;8055;51.930;8.840;2023-04-03T00:56:54;12.45;;;2.38;;
15913;SDS011;8055;51.930;8.840;2023-04-03T00:59:23;6.07;;;1.98;;
15913;SDS011;8055;51.930;8.840;2023-04-03T01:01:52;3.88;;;1.42;;
15913;SDS011;8055;51.930;8.840;2023-04-03T01:04:30;7.07;;;1.95;;
15913;SDS011;8055;51.930;8.840;2023-04-03T01:07:02;4.93;;;1.88;;
15913;SDS011;8055;51.930;8.840;2023-04-03T01:09:33;3.17;;;1.40;;
15913;SDS011;8055;51.930;8.840;2023-04-03T01:12:16;7.18;;;1.90;;
15913;SDS011;8055;51.930;8.840;2023-04-03T01:14:44;9.32;;;1.90;;
15913;SDS011;8055;51.930;8.840;2023-04-03T01:20:26;5.50;;;1.60;;
15913;SDS011;8055;51.930;8.840;2023-04-03T01:23:39;6.03;;;1.90;;
15913;SDS011;8055;51.930;8.840;2023-04-03T01:25:57;8.40;;;2.20;;
15913;SDS011;8055;51.930;8.840;2023-04-03T01:28:27;4.70;;;1.85;;
15913;SDS011;8055;51.930;8.840;2023-04-03T01:33:54;8.25;;;2.13;;
15913;SDS011;8055;51.930;8.840;2023-04-03T01:36:22;4.82;;;1.95;;
15913;SDS011;8055;51.930;8.840;2023-04-03T01:38:49;2.95;;;1.50;;
15913;SDS011;8055;51.930;8.840;2023-04-03T01:41:15;5.75;;;1.90;;
15913;SDS011;8055;51.930;8.840;2023-04-03T01:43:41;6.05;;;1.73;;
15913;SDS011;8055;51.930;8.840;2023-04-03T01:46:07;5.65;;;2.15;;
15913;SDS011;8055;51.930;8.840;2023-04-03T01:48:32;6.85;;;1.80;;
15913;SDS011;8055;51.930;8.840;2023-04-03T01:50:58;6.15;;;2.15;;
15913;SDS011;8055;51.930;8.840;2023-04-03T01:53:23;6.68;;;2.42;;
15913;SDS011;8055;51.930;8.840;2023-04-03T01:55:49;4.63;;;1.58;;
15913;SDS011;8055;51.930;8.840;2023-04-03T01:58:14;6.28;;;2.22;;
15913;SDS011;8055;51.930;8.840;2023-04-03T02:00:40;7.95;;;1.88;;
15913;SDS011;8055;51.930;8.840;2023-04-03T02:03:05;4.93;;;1.95;;
15913;SDS011;8055;51.930;8.840;2023-04-03T02:05:31;4.60;;;1.73;;
15913;SDS011;8055;51.930;8.840;2023-04-03T02:07:57;6.93;;;2.28;;
15913;SDS011;8055;51.930;8.840;2023-04-03T02:10:22;5.75;;;1.73;;
15913;SDS011;8055;51.930;8.840;2023-04-03T02:12:48;4.07;;;1.90;;
15913;SDS011;8055;51.930;8.840;2023-04-03T02:15:13;5.82;;;1.85;;
15913;SDS011;8055;51.930;8.840;2023-04-03T02:17:39;6.20;;;2.00;;
15913;SDS011;8055;51.930;8.840;2023-04-03T02:20:04;10.75;;;2.60;;
15913;SDS011;8055;51.930;8.840;2023-04-03T02:22:30;8.77;;;2.03;;
15913;SDS011;8055;51.930;8.840;2023-04-03T02:24:56;6.07;;;1.85;;
15913;SDS011;8055;51.930;8.840;2023-04-03T02:27:21;4.35;;;1.90;;
15913;SDS011;8055;51.930;8.840;2023-04-03T02:29:46;5.78;;;1.80;;
15913;SDS011;8055;51.930;8.840;2023-04-03T02:32:12;3.80;;;1.80;;
15913;SDS011;8055;51.930;8.840;2023-04-03T02:34:37;6.22;;;1.90;;
15913;SDS011;8055;51.930;8.840;2023-04-03T02:37:03;8.02;;;1.80;;
15913;SDS011;8055;51.930;8.840;2023-04-03T02:39:28;5.95;;;1.85;;
15913;SDS011;8055;51.930;8.840;2023-04-03T02:41:54;7.03;;;2.05;;
15913;SDS011;8055;51.930;8.840;2023-04-03T02:44:19;8.88;;;2.08;;
15913;SDS011;8055;51.930;8.840;2023-04-03T02:46:44;6.13;;;2.00;;
15913;SDS011;8055;51.930;8.840;2023-04-03T02:49:10;4.45;;;1.98;;
15913;SDS011;8055;51.930;8.840;2023-04-03T02:51:35;5.45;;;2.15;;
15913;SDS011;8055;51.930;8.840;2023-04-03T02:54:01;4.72;;;2.38;;
15913;SDS011;8055;51.930;8.840;2023-04-03T02:56:27;9.27;;;2.60;;
15913;SDS011;8055;51.930;8.840;2023-04-03T02:58:52;6.75;;;2.10;;
15913;SDS011;8055;51.930;8.840;2023-04-03T03:01:18;7.47;;;1.90;;
15913;SDS011;8055;51.930;8.840;2023-04-03T03:03:43;4.22;;;1.75;;
15913;SDS011;8055;51.930;8.840;2023-04-03T03:06:13;4.95;;;1.95;;
15913;SDS011;8055;51.930;8.840;2023-04-03T03:08:41;6.15;;;1.85;;
15913;SDS011;8055;51.930;8.840;2023-04-03T03:11:06;5.60;;;2.20;;
15913;SDS011;8055;51.930;8.840;2023-04-03T03:13:32;4.90;;;1.73;;
15913;SDS011;8055;51.930;8.840;2023-04-03T03:15:58;7.35;;;2.05;;
15913;SDS011;8055;51.930;8.840;2023-04-03T03:18:24;7.50;;;2.20;;
15913;SDS011;8055;51.930;8.840;2023-04-03T03:20:54;11.30;;;2.55;;
15913;SDS011;8055;51.930;8.840;2023-04-03T03:23:21;9.32;;;2.47;;
15913;SDS011;8055;51.930;8.840;2023-04-03T03:25:47;7.85;;;2.65;;
15913;SDS011;8055;51.930;8.840;2023-04-03T03:28:13;7.43;;;1.88;;
15913;SDS011;8055;51.930;8.840;2023-04-03T03:30:38;6.20;;;2.38;;
15913;SDS011;8055;51.930;8.840;2023-04-03T03:33:04;8.93;;;2.42;;
15913;SDS011;8055;51.930;8.840;2023-04-03T03:35:29;7.95;;;2.10;;
15913;SDS011;8055;51.930;8.840;2023-04-03T03:37:55;7.80;;;2.35;;
15913;SDS011;8055;51.930;8.840;2023-04-03T03:40:20;7.05;;;2.33;;
15913;SDS011;8055;51.930;8.840;2023-04-03T03:42:46;6.20;;;2.22;;
15913;SDS011;8055;51.930;8.840;2023-04-03T03:45:11;9.52;;;2.28;;
15913;SDS011;8055;51.930;8.840;2023-04-03T03:47:37;7.65;;;2.30;;
15913;SDS011;8055;51.930;8.840;2023-04-03T03:50:03;6.05;;;2.55;;
15913;SDS011;8055;51.930;8.840;2023-04-03T03:52:28;5.75;;;2.58;;
15913;SDS011;8055;51.930;8.840;2023-04-03T03:54:55;8.80;;;3.22;;
15913;SDS011;8055;51.930;8.840;2023-04-03T03:57:20;7.45;;;2.22;;
15913;SDS011;8055;51.930;8.840;2023-04-03T03:59:46;8.20;;;2.65;;
15913;SDS011;8055;51.930;8.840;2023-04-03T04:02:12;8.45;;;3.05;;
15913;SDS011;8055;51.930;8.840;2023-04-03T04:04:38;4.35;;;2.00;;
15913;SDS011;8055;51.930;8.840;2023-04-03T04:07:03;5.55;;;2.30;;
15913;SDS011;8055;51.930;8.840;2023-04-03T04:09:28;5.90;;;2.05;;
15913;SDS011;8055;51.930;8.840;2023-04-03T04:11:54;7.43;;;2.00;;
15913;SDS011;8055;51.930;8.840;2023-04-03T04:14:19;6.57;;;2.65;;
15913;SDS011;8055;51.930;8.840;2023-04-03T04:16:47;7.10;;;2.20;;
15913;SDS011;8055;51.930;8.840;2023-04-03T04:19:13;8.80;;;2.30;;
15913;SDS011;8055;51.930;8.840;2023-04-03T04:21:40;10.48;;;2.40;;
15913;SDS011;8055;51.930;8.840;2023-04-03T04:24:06;9.18;;;2.63;;
15913;SDS011;8055;51.930;8.840;2023-04-03T04:26:32;10.60;;;2.78;;
15913;SDS011;8055;51.930;8.840;2023-04-03T04:28:57;9.57;;;1.95;;
15913;SDS011;8055;51.930;8.840;2023-04-03T04:31:23;6.03;;;2.08;;
15913;SDS011;8055;51.930;8.840;2023-04-03T04:33:48;8.30;;;2.25;;
15913;SDS011;8055;51.930;8.840;2023-04-03T04:36:14;7.90;;;2.22;;
15913;SDS011;8055;51.930;8.840;2023-04-03T04:38:40;8.30;;;2.30;;
15913;SDS011;8055;51.930;8.840;2023-04-03T04:41:05;5.45;;;2.05;;
15913;SDS011;8055;51.930;8.840;2023-04-03T04:43:32;8.85;;;2.47;;
15913;SDS011;8055;51.930;8.840;2023-04-03T04:46:04;6.93;;;2.28;;
15913;SDS011;8055;51.930;8.840;2023-04-03T04:48:31;6.18;;;2.10;;
15913;SDS011;8055;51.930;8.840;2023-04-03T04:50:56;7.85;;;2.22;;
15913;SDS011;8055;51.930;8.840;2023-04-03T04:53:21;8.82;;;2.50;;
15913;SDS011;8055;51.930;8.840;2023-04-03T04:55:47;5.18;;;2.30;;
15913;SDS011;8055;51.930;8.840;2023-04-03T04:58:13;5.80;;;2.30;;
15913;SDS011;8055;51.930;8.840;2023-04-03T05:00:38;10.20;;;2.63;;
15913;SDS011;8055;51.930;8.840;2023-04-03T05:03:04;10.07;;;2.65;;
15913;SDS011;8055;51.930;8.840;2023-04-03T05:05:29;6.05;;;2.35;;
15913;SDS011;8055;51.930;8.840;2023-04-03T05:07:55;7.72;;;2.50;;
15913;SDS011;8055;51.930;8.840;2023-04-03T05:10:20;11.23;;;3.45;;
15913;SDS011;8055;51.930;8.840;2023-04-03T05:12:46;5.03;;;2.50;;
15913;SDS011;8055;51.930;8.840;2023-04-03T05:15:11;11.07;;;2.80;;
15913;SDS011;8055;51.930;8.840;2023-04-03T05:17:37;5.45;;;2.13;;
15913;SDS011;8055;51.930;8.840;2023-04-03T05:20:03;6.10;;;2.28;;
15913;SDS011;8055;51.930;8.840;2023-04-03T05:22:30;8.93;;;3.15;;
15913;SDS011;8055;51.930;8.840;2023-04-03T05:24:56;6.57;;;2.53;;
15913;SDS011;8055;51.930;8.840;2023-04-03T05:27:21;9.07;;;2.78;;
15913;SDS011;8055;51.930;8.840;2023-04-03T05:29:48;6.45;;;2.50;;
15913;SDS011;8055;51.930;8.840;2023-04-03T05:32:14;8.10;;;2.70;;
15913;SDS011;8055;51.930;8.840;2023-04-03T05:34:39;11.48;;;3.53;;
15913;SDS011;8055;51.930;8.840;2023-04-03T05:37:05;8.48;;;3.75;;
15913;SDS011;8055;51.930;8.840;2023-04-03T05:39:30;8.18;;;3.65;;
15913;SDS011;8055;51.930;8.840;2023-04-03T05:41:56;11.43;;;3.40;;
15913;SDS011;8055;51.930;8.840;2023-04-03T05:44:22;5.53;;;2.70;;
15913;SDS011;8055;51.930;8.840;2023-04-03T05:46:48;8.18;;;2.97;;
15913;SDS011;8055;51.930;8.840;2023-04-03T05:49:13;9.73;;;2.90;;
15913;SDS011;8055;51.930;8.840;2023-04-03T05:51:39;8.38;;;2.78;;
15913;SDS011;8055;51.930;8.840;2023-04-03T05:54:16;9.18;;;2.90;;
15913;SDS011;8055;51.930;8.840;2023-04-03T05:56:45;9.05;;;2.92;;
15913;SDS011;8055;51.930;8.840;2023-04-03T05:59:10;10.90;;;3.10;;
15913;SDS011;8055;51.930;8.840;2023-04-03T06:01:36;19.42;;;2.83;;
15913;SDS011;8055;51.930;8.840;2023-04-03T06:04:02;8.15;;;2.95;;
15913;SDS011;8055;51.930;8.840;2023-04-03T06:09:09;7.10;;;2.47;;
15913;SDS011;8055;51.930;8.840;2023-04-03T06:11:34;12.38;;;3.20;;
15913;SDS011;8055;51.930;8.840;2023-04-03T06:14:00;6.32;;;2.50;;
15913;SDS011;8055;51.930;8.840;2023-04-03T06:16:26;9.65;;;2.53;;
15913;SDS011;8055;51.930;8.840;2023-04-03T06:18:51;11.40;;;3.00;;
15913;SDS011;8055;51.930;8.840;2023-04-03T06:21:17;9.70;;;2.70;;
15913;SDS011;8055;51.930;8.840;2023-04-03T06:23:42;7.82;;;2.50;;
15913;SDS011;8055;51.930;8.840;2023-04-03T06:26:07;8.32;;;2.78;;
15913;SDS011;8055;51.930;8.840;2023-04-03T06:28:33;8.68;;;2.78;;
15913;SDS011;8055;51.930;8.840;2023-04-03T06:30:58;7.18;;;2.60;;
15913;SDS011;8055;51.930;8.840;2023-04-03T06:33:24;5.57;;;2.70;;
15913;SDS011;8055;51.930;8.840;2023-04-03T06:35:49;5.80;;;2.53;;
15913;SDS011;8055;51.930;8.840;2023-04-03T06:38:14;9.82;;;3.13;;
15913;SDS011;8055;51.930;8.840;2023-04-03T06:40:40;7.47;;;2.42;;
15913;SDS011;8055;51.930;8.840;2023-04-03T06:43:05;11.20;;;2.30;;
15913;SDS011;8055;51.930;8.840;2023-04-03T06:45:32;8.13;;;2.45;;
15913;SDS011;8055;51.930;8.840;2023-04-03T06:47:57;8.70;;;2.75;;
15913;SDS011;8055;51.930;8.840;2023-04-03T06:50:22;8.60;;;3.00;;
15913;SDS011;8055;51.930;8.840;2023-04-03T06:52:48;6.22;;;2.28;;
15913;SDS011;8055;51.930;8.840;2023-04-03T06:55:13;3.10;;;1.90;;
15913;SDS011;8055;51.930;8.840;2023-04-03T06:57:38;6.50;;;2.30;;
15913;SDS011;8055;51.930;8.840;2023-04-03T07:00:05;10.40;;;2.53;;
15913;SDS011;8055;51.930;8.840;2023-04-03T07:02:32;4.07;;;1.88;;
15913;SDS011;8055;51.930;8.840;2023-04-03T07:04:57;7.63;;;3.08;;
15913;SDS011;8055;51.930;8.840;2023-04-03T07:07:23;7.38;;;1.95;;
15913;SDS011;8055;51.930;8.840;2023-04-03T07:09:48;9.32;;;2.30;;
15913;SDS011;8055;51.930;8.840;2023-04-03T07:12:14;4.65;;;2.03;;
15913;SDS011;8055;51.930;8.840;2023-04-03T07:14:40;4.80;;;1.60;;
15913;SDS011;8055;51.930;8.840;2023-04-03T07:17:06;6.10;;;1.88;;
15913;SDS011;8055;51.930;8.840;2023-04-03T07:19:31;6.10;;;1.67;;
15913;SDS011;8055;51.930;8.840;2023-04-03T07:21:57;6.18;;;1.73;;
15913;SDS011;8055;51.930;8.840;2023-04-03T07:24:22;6.75;;;1.85;;
15913;SDS011;8055;51.930;8.840;2023-04-03T07:26:54;5.40;;;2.15;;
15913;SDS011;8055;51.930;8.840;2023-04-03T07:29:20;4.43;;;1.70;;
15913;SDS011;8055;51.930;8.840;2023-04-03T07:31:46;6.32;;;2.28;;
15913;SDS011;8055;51.930;8.840;2023-04-03T07:34:12;10.38;;;2.00;;
15913;SDS011;8055;51.930;8.840;2023-04-03T07:36:37;6.65;;;2.08;;
15913;SDS011;8055;51.930;8.840;2023-04-03T07:39:03;8.70;;;1.90;;
15913;SDS011;8055;51.930;8.840;2023-04-03T07:41:28;6.25;;;2.08;;
15913;SDS011;8055;51.930;8.840;2023-04-03T07:43:55;4.45;;;2.25;;
15913;SDS011;8055;51.930;8.840;2023-04-03T07:46:21;5.22;;;1.70;;
15913;SDS011;8055;51.930;8.840;2023-04-03T07:48:47;7.65;;;1.75;;
15913;SDS011;8055;51.930;8.840;2023-04-03T07:51:12;7.70;;;1.65;;
15913;SDS011;8055;51.930;8.840;2023-04-03T07:53:38;7.32;;;1.77;;
15913;SDS011;8055;51.930;8.840;2023-04-03T07:56:04;3.60;;;1.85;;
15913;SDS011;8055;51.930;8.840;2023-04-03T07:58:30;3.33;;;1.70;;
15913;SDS011;8055;51.930;8.840;2023-04-03T08:00:55;7.60;;;2.05;;
15913;SDS011;8055;51.930;8.840;2023-04-03T08:03:21;7.20;;;1.67;;
15913;SDS011;8055;51.930;8.840;2023-04-03T08:05:48;4.65;;;1.80;;
15913;SDS011;8055;51.930;8.840;2023-04-03T08:08:18;7.00;;;2.00;;
15913;SDS011;8055;51.930;8.840;2023-04-03T08:10:48;5.95;;;2.33;;
15913;SDS011;8055;51.930;8.840;2023-04-03T08:13:15;5.93;;;1.65;;
15913;SDS011;8055;51.930;8.840;2023-04-03T08:15:40;5.85;;;1.88;;
15913;SDS011;8055;51.930;8.840;2023-04-03T08:18:06;5.03;;;1.80;;
15913;SDS011;8055;51.930;8.840;2023-04-03T08:20:31;5.22;;;1.80;;
15913;SDS011;8055;51.930;8.840;2023-04-03T08:22:57;6.45;;;1.63;;
15913;SDS011;8055;51.930;8.840;2023-04-03T08:25:22;7.43;;;1.48;;
15913;SDS011;8055;51.930;8.840;2023-04-03T08:27:48;5.38;;;2.03;;
15913;SDS011;8055;51.930;8.840;2023-04-03T08:30:13;4.65;;;2.60;;
15913;SDS011;8055;51.930;8.840;2023-04-03T08:32:39;6.07;;;2.35;;
15913;SDS011;8055;51.930;8.840;2023-04-03T08:35:06;6.50;;;1.95;;
15913;SDS011;8055;51.930;8.840;2023-04-03T08:37:34;4.25;;;1.30;;
15913;SDS011;8055;51.930;8.840;2023-04-03T08:40:01;4.10;;;1.27;;
15913;SDS011;8055;51.930;8.840;2023-04-03T08:42:45;5.05;;;1.42;;
15913;SDS011;8055;51.930;8.840;2023-04-03T08:50:43;5.15;;;1.80;;
15913;SDS011;8055;51.930;8.840;2023-04-03T08:53:16;7.38;;;1.80;;
15913;SDS011;8055;51.930;8.840;2023-04-03T08:55:45;6.25;;;1.70;;
15913;SDS011;8055;51.930;8.840;2023-04-03T08:58:12;5.65;;;1.77;;
15913;SDS011;8055;51.930;8.840;2023-04-03T09:00:52;6.80;;;2.40;;
15913;SDS011;8055;51.930;8.840;2023-04-03T09:03:22;10.45;;;2.05;;
15913;SDS011;8055;51.930;8.840;2023-04-03T09:08:30;5.72;;;1.52;;
15913;SDS011;8055;51.930;8.840;2023-04-03T09:11:09;6.65;;;1.30;;
15913;SDS011;8055;51.930;8.840;2023-04-03T09:13:50;5.85;;;1.40;;
15913;SDS011;8055;51.930;8.840;2023-04-03T09:16:27;5.22;;;1.50;;
15913;SDS011;8055;51.930;8.840;2023-04-03T09:22:17;6.50;;;1.20;;
15913;SDS011;8055;51.930;8.840;2023-04-03T09:24:47;3.03;;;1.13;;
15913;SDS011;8055;51.930;8.840;2023-04-03T09:27:17;4.28;;;1.63;;
15913;SDS011;8055;51.930;8.840;2023-04-03T09:29:43;5.18;;;1.38;;
15913;SDS011;8055;51.930;8.840;2023-04-03T09:35:01;4.10;;;1.70;;
15913;SDS011;8055;51.930;8.840;2023-04-03T09:37:44;6.20;;;2.00;;
15913;SDS011;8055;51.930;8.840;2023-04-03T09:42:59;5.25;;;1.67;;
15913;SDS011;8055;51.930;8.840;2023-04-03T09:45:33;1.75;;;1.10;;
15913;SDS011;8055;51.930;8.840;2023-04-03T09:48:08;5.30;;;1.27;;
15913;SDS011;8055;51.930;8.840;2023-04-03T09:56:00;8.38;;;1.63;;
15913;SDS011;8055;51.930;8.840;2023-04-03T09:58:30;3.47;;;1.70;;
15913;SDS011;8055;51.930;8.840;2023-04-03T10:00:59;3.90;;;1.40;;
15913;SDS011;8055;51.930;8.840;2023-04-03T10:03:28;3.45;;;1.70;;
15913;SDS011;8055;51.930;8.840;2023-04-03T10:05:54;3.92;;;1.40;;
15913;SDS011;8055;51.930;8.840;2023-04-03T10:11:12;4.30;;;1.40;;
15913;SDS011;8055;51.930;8.840;2023-04-03T10:13:51;9.57;;;1.90;;
15913;SDS011;8055;51.930;8.840;2023-04-03T10:16:25;6.20;;;2.20;;
15913;SDS011;8055;51.930;8.840;2023-04-03T10:21:40;6.43;;;1.60;;
15913;SDS011;8055;51.930;8.840;2023-04-03T10:26:45;4.40;;;1.40;;
15913;SDS011;8055;51.930;8.840;2023-04-03T10:31:48;2.78;;;1.63;;
15913;SDS011;8055;51.930;8.840;2023-04-03T10:34:24;3.22;;;1.20;;
15913;SDS011;8055;51.930;8.840;2023-04-03T10:39:41;2.58;;;1.15;;
15913;SDS011;8055;51.930;8.840;2023-04-03T10:42:35;4.80;;;1.40;;
15913;SDS011;8055;51.930;8.840;2023-04-03T10:45:17;2.58;;;0.90;;
15913;SDS011;8055;51.930;8.840;2023-04-03T10:47:52;3.17;;;1.00;;
15913;SDS011;8055;51.930;8.840;2023-04-03T10:58:36;5.80;;;1.90;;
15913;SDS011;8055;51.930;8.840;2023-04-03T11:01:10;6.55;;;1.35;;
15913;SDS011;8055;51.930;8.840;2023-04-03T11:03:40;5.28;;;1.50;;
15913;SDS011;8055;51.930;8.840;2023-04-03T11:06:10;7.47;;;1.60;;
15913;SDS011;8055;51.930;8.840;2023-04-03T11:08:44;5.05;;;1.08;;
15913;SDS011;8055;51.930;8.840;2023-04-03T11:11:16;5.00;;;1.73;;
15913;SDS011;8055;51.930;8.840;2023-04-03T11:13:50;3.83;;;1.38;;
15913;SDS011;8055;51.930;8.840;2023-04-03T11:16:18;7.30;;;1.92;;
15913;SDS011;8055;51.930;8.840;2023-04-03T11:21:43;3.75;;;1.40;;
15913;SDS011;8055;51.930;8.840;2023-04-03T11:24:20;3.05;;;1.15;;
15913;SDS011;8055;51.930;8.840;2023-04-03T11:26:50;3.83;;;1.48;;
15913;SDS011;8055;51.930;8.840;2023-04-03T11:29:18;4.22;;;1.30;;
15913;SDS011;8055;51.930;8.840;2023-04-03T11:37:13;2.08;;;1.15;;
15913;SDS011;8055;51.930;8.840;2023-04-03T11:39:56;4.97;;;1.45;;
15913;SDS011;8055;51.930;8.840;2023-04-03T11:42:29;3.97;;;1.70;;
15913;SDS011;8055;51.930;8.840;2023-04-03T11:47:59;6.03;;;1.35;;
15913;SDS011;8055;51.930;8.840;2023-04-03T11:50:51;4.82;;;1.35;;
15913;SDS011;8055;51.930;8.840;2023-04-03T11:55:44;3.40;;;1.30;;
15913;SDS011;8055;51.930;8.840;2023-04-03T11:58:25;3.17;;;1.20;;
15913;SDS011;8055;51.930;8.840;2023-04-03T12:00:58;3.13;;;1.42;;
15913;SDS011;8055;51.930;8.840;2023-04-03T12:04:14;3.17;;;1.30;;
15913;SDS011;8055;51.930;8.840;2023-04-03T12:06:59;5.63;;;1.38;;
15913;SDS011;8055;51.930;8.840;2023-04-03T12:11:58;2.35;;;1.27;;
15913;SDS011;8055;51.930;8.840;2023-04-03T12:14:25;4.72;;;1.50;;
15913;SDS011;8055;51.930;8.840;2023-04-03T12:16:55;2.47;;;1.30;;
15913;SDS011;8055;51.930;8.840;2023-04-03T12:19:33;2.65;;;1.15;;
15913;SDS011;8055;51.930;8.840;2023-04-03T12:24:26;3.53;;;1.40;;
15913;SDS011;8055;51.930;8.840;2023-04-03T12:45:21;2.83;;;1.58;;
15913;SDS011;8055;51.930;8.840;2023-04-03T12:47:49;4.10;;;1.48;;
15913;SDS011;8055;51.930;8.840;2023-04-03T12:50:29;2.70;;;1.35;;
15913;SDS011;8055;51.930;8.840;2023-04-03T12:53:04;2.72;;;1.33;;
15913;SDS011;8055;51.930;8.840;2023-04-03T12:55:32;4.18;;;1.25;;
15913;SDS011;8055;51.930;8.840;2023-04-03T12:58:12;4.35;;;1.52;;
15913;SDS011;8055;51.930;8.840;2023-04-03T13:00:59;6.38;;;1.40;;
15913;SDS011;8055;51.930;8.840;2023-04-03T13:03:26;3.92;;;1.50;;
15913;SDS011;8055;51.930;8.840;2023-04-03T13:05:54;3.42;;;1.60;;
15913;SDS011;8055;51.930;8.840;2023-04-03T13:08:22;4.18;;;1.33;;
15913;SDS011;8055;51.930;8.840;2023-04-03T13:10:55;5.95;;;2.00;;
15913;SDS011;8055;51.930;8.840;2023-04-03T13:13:24;3.13;;;1.50;;
15913;SDS011;8055;51.930;8.840;2023-04-03T13:15:51;3.67;;;1.92;;
15913;SDS011;8055;51.930;8.840;2023-04-03T13:18:52;4.95;;;2.80;;
15913;SDS011;8055;51.930;8.840;2023-04-03T13:21:17;4.57;;;2.60;;
15913;SDS011;8055;51.930;8.840;2023-04-03T13:23:48;5.20;;;2.67;;
15913;SDS011;8055;51.930;8.840;2023-04-03T13:26:16;5.47;;;2.40;;
15913;SDS011;8055;51.930;8.840;2023-04-03T13:28:43;3.53;;;1.60;;
15913;SDS011;8055;51.930;8.840;2023-04-03T13:37:18;2.85;;;1.63;;
15913;SDS011;8055;51.930;8.840;2023-04-03T13:39:27;3.30;;;1.50;;
15913;SDS011;8055;51.930;8.840;2023-04-03T13:41:58;2.53;;;1.38;;
15913;SDS011;8055;51.930;8.840;2023-04-03T13:46:58;5.82;;;2.25;;
15913;SDS011;8055;51.930;8.840;2023-04-03T13:54:49;7.10;;;3.83;;
15913;SDS011;8055;51.930;8.840;2023-04-03T13:57:17;9.93;;;4.05;;
15913;SDS011;8055;51.930;8.840;2023-04-03T13:59:43;7.32;;;4.25;;
15913;SDS011;8055;51.930;8.840;2023-04-03T14:07:09;3.75;;;1.40;;
15913;SDS011;8055;51.930;8.840;2023-04-03T14:09:35;3.55;;;1.75;;
15913;SDS011;8055;51.930;8.840;2023-04-03T14:14:56;4.25;;;1.65;;
15913;SDS011;8055;51.930;8.840;2023-04-03T14:17:23;4.22;;;1.50;;
15913;SDS011;8055;51.930;8.840;2023-04-03T14:19:51;3.35;;;1.45;;
15913;SDS011;8055;51.930;8.840;2023-04-03T14:24:45;4.22;;;1.30;;
15913;SDS011;8055;51.930;8.840;2023-04-03T14:27:33;4.38;;;1.35;;
15913;SDS011;8055;51.930;8.840;2023-04-03T14:30:00;2.92;;;1.48;;
15913;SDS011;8055;51.930;8.840;2023-04-03T14:32:28;3.63;;;1.50;;
15913;SDS011;8055;51.930;8.840;2023-04-03T14:34:54;2.47;;;1.48;;
15913;SDS011;8055;51.930;8.840;2023-04-03T14:37:24;3.55;;;1.52;;
15913;SDS011;8055;51.930;8.840;2023-04-03T14:39:52;3.42;;;1.30;;
15913;SDS011;8055;51.930;8.840;2023-04-03T14:42:20;2.88;;;1.50;;
15913;SDS011;8055;51.930;8.840;2023-04-03T14:44:47;6.20;;;1.60;;
15913;SDS011;8055;51.930;8.840;2023-04-03T14:47:14;3.88;;;1.33;;
15913;SDS011;8055;51.930;8.840;2023-04-03T14:49:42;5.32;;;1.55;;
15913;SDS011;8055;51.930;8.840;2023-04-03T14:55:06;5.25;;;1.80;;
15913;SDS011;8055;51.930;8.840;2023-04-03T14:57:31;4.07;;;1.42;;
15913;SDS011;8055;51.930;8.840;2023-04-03T14:59:58;3.47;;;1.58;;
15913;SDS011;8055;51.930;8.840;2023-04-03T15:02:34;2.72;;;1.10;;
15913;SDS011;8055;51.930;8.840;2023-04-03T15:05:02;3.97;;;1.40;;
15913;SDS011;8055;51.930;8.840;2023-04-03T15:07:31;3.60;;;1.23;;
15913;SDS011;8055;51.930;8.840;2023-04-03T15:10:02;4.10;;;1.52;;
15913;SDS011;8055;51.930;8.840;2023-04-03T15:12:38;6.13;;;1.67;;
15913;SDS011;8055;51.930;8.840;2023-04-03T15:15:04;3.10;;;1.25;;
15913;SDS011;8055;51.930;8.840;2023-04-03T15:17:30;4.07;;;1.33;;
15913;SDS011;8055;51.930;8.840;2023-04-03T15:19:55;2.67;;;1.00;;
15913;SDS011;8055;51.930;8.840;2023-04-03T15:22:21;2.92;;;1.27;;
15913;SDS011;8055;51.930;8.840;2023-04-03T15:24:46;3.47;;;1.30;;
15913;SDS011;8055;51.930;8.840;2023-04-03T15:27:12;6.38;;;1.17;;
15913;SDS011;8055;51.930;8.840;2023-04-03T15:29:39;4.70;;;1.50;;
15913;SDS011;8055;51.930;8.840;2023-04-03T15:32:05;4.35;;;1.38;;
15913;SDS011;8055;51.930;8.840;2023-04-03T15:34:31;5.88;;;1.40;;
15913;SDS011;8055;51.930;8.840;2023-04-03T15:36:56;3.72;;;1.45;;
15913;SDS011;8055;51.930;8.840;2023-04-03T15:39:22;5.65;;;2.42;;
15913;SDS011;8055;51.930;8.840;2023-04-03T15:41:48;3.03;;;1.88;;
15913;SDS011;8055;51.930;8.840;2023-04-03T15:44:14;5.57;;;1.90;;
15913;SDS011;8055;51.930;8.840;2023-04-03T15:46:42;5.47;;;1.70;;
15913;SDS011;8055;51.930;8.840;2023-04-03T15:49:08;2.72;;;1.60;;
15913;SDS011;8055;51.930;8.840;2023-04-03T15:51:33;6.65;;;2.33;;
15913;SDS011;8055;51.930;8.840;2023-04-03T15:53:59;3.63;;;1.58;;
15913;SDS011;8055;51.930;8.840;2023-04-03T15:56:24;4.38;;;1.80;;
15913;SDS011;8055;51.930;8.840;2023-04-03T15:58:50;3.33;;;1.40;;
15913;SDS011;8055;51.930;8.840;2023-04-03T16:01:15;7.82;;;3.15;;
15913;SDS011;8055;51.930;8.840;2023-04-03T16:03:41;6.25;;;2.17;;
15913;SDS011;8055;51.930;8.840;2023-04-03T16:06:09;8.75;;;2.70;;
15913;SDS011;8055;51.930;8.840;2023-04-03T16:08:38;7.05;;;2.53;;
15913;SDS011;8055;51.930;8.840;2023-04-03T16:11:04;10.52;;;3.55;;
15913;SDS011;8055;51.930;8.840;2023-04-03T16:13:29;14.25;;;4.05;;
15913;SDS011;8055;51.930;8.840;2023-04-03T16:15:55;13.77;;;3.85;;
15913;SDS011;8055;51.930;8.840;2023-04-03T16:18:21;4.40;;;1.38;;
15913;SDS011;8055;51.930;8.840;2023-04-03T16:20:46;4.10;;;2.10;;
15913;SDS011;8055;51.930;8.840;2023-04-03T16:23:12;2.38;;;1.38;;
15913;SDS011;8055;51.930;8.840;2023-04-03T16:25:38;4.50;;;2.20;;
15913;SDS011;8055;51.930;8.840;2023-04-03T16:28:03;4.13;;;2.20;;
15913;SDS011;8055;51.930;8.840;2023-04-03T16:30:29;3.65;;;1.92;;
15913;SDS011;8055;51.930;8.840;2023-04-03T16:32:54;5.63;;;1.75;;
15913;SDS011;8055;51.930;8.840;2023-04-03T16:35:21;3.35;;;1.52;;
15913;SDS011;8055;51.930;8.840;2023-04-03T16:37:47;5.22;;;2.35;;
15913;SDS011;8055;51.930;8.840;2023-04-03T16:40:13;5.90;;;2.05;;
15913;SDS011;8055;51.930;8.840;2023-04-03T16:42:39;4.82;;;1.58;;
15913;SDS011;8055;51.930;8.840;2023-04-03T16:45:05;3.15;;;1.60;;
15913;SDS011;8055;51.930;8.840;2023-04-03T16:47:31;2.72;;;1.48;;
15913;SDS011;8055;51.930;8.840;2023-04-03T16:49:57;5.55;;;3.38;;
15913;SDS011;8055;51.930;8.840;2023-04-03T16:52:22;4.55;;;2.00;;
15913;SDS011;8055;51.930;8.840;2023-04-03T16:54:47;3.53;;;1.95;;
15913;SDS011;8055;51.930;8.840;2023-04-03T16:57:13;5.57;;;1.80;;
15913;SDS011;8055;51.930;8.840;2023-04-03T16:59:38;4.53;;;2.90;;
15913;SDS011;8055;51.930;8.840;2023-04-03T17:02:03;18.17;;;15.15;;
15913;SDS011;8055;51.930;8.840;2023-04-03T17:04:29;27.10;;;12.93;;